Hypoluxo, Florida
Current Conditions -  °F | °C
As of 12:53 AM on Monday 22 Dec 2014 (Local Time) from KPBI Reporting Station
Broken Clouds Broken Clouds  
Wind Chill: 73°   Ceiling: 10000
Heat Index: 73°   Visibility: 10mi
Dew Point: 64°   Wind: 0mph
Humidity: 73%   Direction: NA
Pressure: 30.03"   Gusts: NA
Location:  26.5758°N, 80.0835°W
Report Text: KPBI 220553Z 00000KT 10SM FEW030 BKN100 23/18 A3003 RMK AO2 SLP169 T02280178 10233 20228 58004
Loading
Personal Weather Stations






























Interactive Weather Map New forecast layout! Learn more

10-Day Weather Forecast

Advertisements
Track Severe Weather on mobile